Time;durP1;ratioP1;P1;durP2;ratioP2;P2;SDS_P1;SDS_P2;PMS_P1;PMS_P2;Temp;Humidity;BMP_temperature;BMP_pressure;BME280_temperature;BME280_humidity;BME280_pressure;Samples;Min_cycle;Max_cycle;Signal;HPM_P1;HPM_P2
2022/10/12 00:01:05;;;;;;;1.95;0.60;;;;;;;19.93;43.02;100171.31;4950268;28;20035;-86
2022/10/12 00:03:32;;;;;;;0.95;0.50;;;;;;;20.02;43.07;100182.50;4938447;28;20065;-85
2022/10/12 00:06:03;;;;;;;2.15;0.47;;;;;;;20.02;42.95;100180.63;4954052;28;20523;-85
2022/10/12 00:08:29;;;;;;;0.50;0.45;;;;;;;20.03;43.11;100181.44;4953419;28;20028;-86
2022/10/12 00:10:54;;;;;;;0.52;0.50;;;;;;;20.03;43.06;100187.69;4952366;28;20029;-86
2022/10/12 00:13:20;;;;;;;0.60;0.30;;;;;;;19.95;42.94;100181.91;4953800;28;20646;-85
2022/10/12 00:15:46;;;;;;;0.52;0.38;;;;;;;20.02;42.76;100191.47;4936723;28;20027;-85
2022/10/12 00:18:11;;;;;;;0.55;0.40;;;;;;;20.02;42.66;100191.47;4953845;28;20054;-86
2022/10/12 00:20:37;;;;;;;0.40;0.40;;;;;;;20.00;42.90;100185.47;4954023;28;20110;-86
2022/10/12 00:23:03;;;;;;;0.45;0.38;;;;;;;19.98;42.87;100187.63;4953742;28;20033;-86
2022/10/12 00:25:28;;;;;;;0.90;0.30;;;;;;;20.02;42.98;100196.06;4953197;28;20031;-85
2022/10/12 00:27:54;;;;;;;0.30;0.30;;;;;;;20.01;43.03;100200.69;4953865;28;20106;-85
2022/10/12 00:30:20;;;;;;;1.38;0.40;;;;;;;19.99;42.88;100202.84;4935978;28;20035;-86
2022/10/12 00:32:45;;;;;;;1.00;0.22;;;;;;;19.97;42.87;100199.56;4936646;28;20077;-85
2022/10/12 00:35:11;;;;;;;1.95;0.50;;;;;;;19.95;42.71;100196.25;4936139;28;20544;-86
2022/10/12 00:37:39;;;;;;;0.88;0.40;;;;;;;20.02;42.86;100207.75;4937309;28;20028;-85
2022/10/12 00:40:05;;;;;;;0.32;0.30;;;;;;;20.02;42.77;100213.19;4936906;28;20034;-86
2022/10/12 00:42:31;;;;;;;0.22;0.22;;;;;;;20.02;42.69;100209.63;4952951;28;20035;-86
2022/10/12 00:44:57;;;;;;;0.40;0.35;;;;;;;19.94;43.12;100200.06;4951595;28;20483;-86
2022/10/12 00:47:27;;;;;;;0.40;0.40;;;;;;;20.00;42.87;100215.31;4939301;28;20027;-86
2022/10/12 00:50:19;;;;;;;0.50;0.32;;;;;;;20.00;42.86;100223.44;4954363;28;20563;-86
2022/10/12 00:53:00;;;;;;;0.55;0.47;;;;;;;20.02;42.74;100218.63;4956005;28;20038;-85
2022/10/12 00:55:26;;;;;;;0.35;0.35;;;;;;;20.01;42.74;100222.38;4971942;28;20045;-85
2022/10/12 00:57:52;;;;;;;1.08;0.47;;;;;;;20.02;42.73;100221.31;4972603;28;20179;-86
2022/10/12 01:00:17;;;;;;;0.30;0.30;;;;;;;20.01;42.75;100230.53;4955000;28;20392;-86
2022/10/12 01:02:43;;;;;;;0.63;0.43;;;;;;;20.02;42.81;100229.47;4956964;28;20387;-86
2022/10/12 01:05:09;;;;;;;0.63;0.30;;;;;;;20.02;42.91;100232.19;4972329;28;20046;-85
2022/10/12 01:07:35;;;;;;;0.30;0.30;;;;;;;20.03;42.97;100233.00;4972548;28;20019;-86
2022/10/12 01:10:01;;;;;;;0.82;0.55;;;;;;;20.00;42.49;100234.28;4972097;28;20030;-85
2022/10/12 01:12:27;;;;;;;0.30;0.30;;;;;;;20.02;42.72;100239.47;4954680;28;20049;-86
2022/10/12 01:14:52;;;;;;;0.47;0.40;;;;;;;20.00;42.69;100239.72;4971270;28;20480;-85
2022/10/12 01:17:27;;;;;;;0.85;0.40;;;;;;;19.93;42.66;100220.13;4972215;28;20052;-85
2022/10/12 01:20:16;;;;;;;0.30;0.30;;;;;;;20.04;42.81;100243.59;4971966;28;20038;-85
2022/10/12 01:23:10;;;;;;;0.55;0.40;;;;;;;20.04;42.50;100242.75;4965396;28;20043;-85
2022/10/12 01:26:12;;;;;;;0.52;0.30;;;;;;;20.04;42.71;100242.75;4962820;28;20042;-85
2022/10/12 01:28:55;;;;;;;0.70;0.40;;;;;;;20.03;42.76;100246.56;4972020;28;20480;-85
2022/10/12 01:31:23;;;;;;;0.90;0.43;;;;;;;20.04;42.96;100243.59;4971496;28;20027;-86
2022/10/12 01:34:27;;;;;;;0.60;0.40;;;;;;;20.03;42.62;100246.56;4971835;28;20066;-86
2022/10/12 01:37:02;;;;;;;0.50;0.30;;;;;;;20.00;42.58;100247.03;4971030;28;20027;-86
2022/10/12 01:39:33;;;;;;;0.40;0.38;;;;;;;19.94;42.82;100248.03;4971832;28;20476;-86
2022/10/12 01:42:11;;;;;;;0.30;0.30;;;;;;;20.01;42.56;100254.94;4971860;28;20027;-85
2022/10/12 01:44:36;;;;;;;0.45;0.38;;;;;;;19.98;42.63;100252.72;4972498;28;20118;-85
2022/10/12 01:47:03;;;;;;;0.93;0.38;;;;;;;20.03;42.97;100263.63;4922497;28;20554;-86
2022/10/12 01:49:30;;;;;;;0.40;0.35;;;;;;;20.03;42.60;100274.47;4973697;28;20041;-85
2022/10/12 01:52:17;;;;;;;1.67;0.45;;;;;;;20.03;42.67;100274.47;4972059;28;20053;-85
2022/10/12 01:55:04;;;;;;;0.55;0.30;;;;;;;20.04;43.11;100269.88;4971445;28;20478;-85
2022/10/12 01:57:51;;;;;;;0.43;0.40;;;;;;;20.03;42.59;100274.47;4971835;28;20035;-85
2022/10/12 02:00:18;;;;;;;0.90;0.40;;;;;;;20.00;42.94;100272.28;4971302;28;20460;-85
2022/10/12 02:02:47;;;;;;;0.57;0.30;;;;;;;20.03;42.71;100279.09;4974839;28;20029;-85
2022/10/12 02:05:17;;;;;;;0.20;0.20;;;;;;;19.97;42.52;100280.94;4971221;28;20038;-85
2022/10/12 02:07:47;;;;;;;0.88;0.38;;;;;;;20.03;42.59;100282.63;4954816;28;20118;-85
2022/10/12 02:10:22;;;;;;;0.63;0.40;;;;;;;20.04;42.67;100287.00;4955326;28;20499;-85
2022/10/12 02:12:48;;;;;;;2.63;0.50;;;;;;;20.02;42.59;100286.44;4972068;28;20165;-85
2022/10/12 02:15:14;;;;;;;0.82;0.40;;;;;;;20.04;42.75;100287.00;4953228;28;20028;-86
2022/10/12 02:17:40;;;;;;;1.80;0.50;;;;;;;20.03;42.53;100293.47;4970944;28;20030;-86
2022/10/12 02:20:07;;;;;;;0.70;0.30;;;;;;;19.84;42.77;100265.03;4956060;28;20022;-86
2022/10/12 02:22:34;;;;;;;0.63;0.45;;;;;;;20.03;42.56;100295.38;4954363;28;20026;-86
2022/10/12 02:25:13;;;;;;;0.30;0.30;;;;;;;20.05;42.71;100293.22;4948864;28;20038;-86
2022/10/12 02:27:42;;;;;;;0.70;0.30;;;;;;;20.04;42.52;100303.25;4939053;28;20038;-86
2022/10/12 02:30:08;;;;;;;0.85;0.35;;;;;;;20.02;42.46;100299.16;4921886;28;20023;-86
2022/10/12 02:33:13;;;;;;;0.20;0.20;;;;;;;20.05;42.69;100313.03;4954490;28;20069;-86
2022/10/12 02:35:57;;;;;;;0.43;0.40;;;;;;;20.04;42.80;100308.69;4951362;28;20049;-86
2022/10/12 02:38:34;;;;;;;1.73;0.40;;;;;;;20.04;42.58;100314.13;4955446;28;20058;-86
2022/10/12 02:41:15;;;;;;;0.40;0.40;;;;;;;20.03;42.54;100309.75;4948092;28;20407;-86
2022/10/12 02:43:56;;;;;;;0.75;0.40;;;;;;;20.04;42.59;100315.97;4954297;28;20081;-86
2022/10/12 02:46:22;;;;;;;0.30;0.30;;;;;;;20.04;42.69;100318.69;4970944;28;20439;-86
2022/10/12 02:48:48;;;;;;;0.47;0.30;;;;;;;19.98;42.69;100315.09;4970357;28;20520;-86
2022/10/12 02:51:13;;;;;;;0.40;0.40;;;;;;;20.04;42.30;100319.53;4954632;28;20126;-86
2022/10/12 02:53:39;;;;;;;2.58;0.50;;;;;;;20.02;42.59;100316.25;4937584;28;20033;-86
2022/10/12 02:56:08;;;;;;;0.40;0.40;;;;;;;20.05;42.82;100321.16;4953323;28;20034;-86
2022/10/12 02:58:34;;;;;;;0.30;0.30;;;;;;;20.03;42.47;100317.06;4937644;28;20161;-86
2022/10/12 03:01:00;;;;;;;0.63;0.40;;;;;;;20.04;42.33;100324.97;4954114;28;20077;-86
2022/10/12 03:03:25;;;;;;;0.50;0.30;;;;;;;20.04;42.47;100324.97;4970699;28;20833;-86
2022/10/12 03:05:51;;;;;;;0.35;0.35;;;;;;;20.04;42.54;100324.97;4970532;28;20066;-86
2022/10/12 03:08:16;;;;;;;0.32;0.30;;;;;;;20.05;42.54;100323.06;4954514;28;20094;-86
2022/10/12 03:10:42;;;;;;;0.70;0.30;;;;;;;20.03;42.50;100323.31;4970236;28;20035;-86
2022/10/12 03:13:08;;;;;;;0.52;0.35;;;;;;;20.04;42.56;100329.53;4969848;28;21103;-85
2022/10/12 03:15:33;;;;;;;0.60;0.38;;;;;;;20.05;42.95;100328.50;4970249;28;20117;-85
2022/10/12 03:17:59;;;;;;;0.30;0.30;;;;;;;20.04;42.67;100330.38;4952769;28;20076;-86
2022/10/12 03:20:24;;;;;;;1.27;0.38;;;;;;;20.03;42.42;100327.94;4969881;28;20031;-86
2022/10/12 03:22:50;;;;;;;0.40;0.40;;;;;;;20.04;42.38;100335.81;4969589;28;20031;-86
2022/10/12 03:25:16;;;;;;;1.13;0.40;;;;;;;20.02;42.32;100326.28;4969426;28;20037;-86
2022/10/12 03:27:41;;;;;;;0.30;0.30;;;;;;;19.98;42.33;100325.16;4954351;28;20543;-86
2022/10/12 03:30:10;;;;;;;0.35;0.30;;;;;;;20.04;42.31;100349.38;4952418;28;20074;-86
2022/10/12 03:32:36;;;;;;;1.20;0.40;;;;;;;20.03;42.11;100350.44;4969151;28;20053;-86
2022/10/12 03:35:01;;;;;;;1.17;0.38;;;;;;;20.05;42.50;100353.72;4968483;28;20488;-86
2022/10/12 03:37:27;;;;;;;0.45;0.30;;;;;;;20.03;42.32;100339.59;4970985;28;20039;-86
2022/10/12 03:39:53;;;;;;;0.47;0.30;;;;;;;20.03;42.48;100342.31;4956504;28;20102;-86
2022/10/12 03:42:18;;;;;;;0.30;0.30;;;;;;;20.03;42.60;100345.00;4973466;28;20483;-86
2022/10/12 03:44:44;;;;;;;0.45;0.30;;;;;;;20.04;42.42;100353.97;4973085;28;20384;-86
2022/10/12 03:47:10;;;;;;;0.28;0.20;;;;;;;20.03;42.40;100366.72;4973845;28;20111;-86
2022/10/12 03:49:35;;;;;;;0.32;0.20;;;;;;;20.04;42.53;100356.69;4959783;28;20381;-86
2022/10/12 03:52:01;;;;;;;0.30;0.25;;;;;;;20.04;42.41;100357.50;4972544;28;20034;-86
2022/10/12 03:54:27;;;;;;;0.30;0.20;;;;;;;20.04;42.47;100362.09;4973360;28;20543;-86
2022/10/12 03:56:52;;;;;;;0.73;0.40;;;;;;;20.04;42.66;100357.50;4973260;28;20031;-86
2022/10/12 03:59:18;;;;;;;1.25;0.47;;;;;;;20.02;42.19;100359.66;4973608;28;20038;-86
2022/10/12 04:01:44;;;;;;;1.10;0.30;;;;;;;20.04;42.24;100362.94;4973038;28;20384;-86
2022/10/12 04:04:10;;;;;;;0.77;0.35;;;;;;;20.04;42.38;100371.06;4973046;28;20081;-86
2022/10/12 04:06:35;;;;;;;0.30;0.30;;;;;;;20.03;42.36;100361.28;4972762;28;20035;-85
2022/10/12 04:09:04;;;;;;;0.68;0.30;;;;;;;20.04;42.30;100371.06;4949917;28;20118;-86
2022/10/12 04:11:29;;;;;;;0.28;0.28;;;;;;;19.99;42.17;100371.00;4973063;28;20825;-86
2022/10/12 04:13:55;;;;;;;0.25;0.25;;;;;;;20.04;42.30;100372.94;4957177;28;20089;-86
2022/10/12 04:16:21;;;;;;;0.65;0.30;;;;;;;19.98;42.27;100363.13;4940485;28;20041;-86
2022/10/12 04:18:46;;;;;;;0.38;0.30;;;;;;;20.03;42.34;100366.72;4937613;28;20035;-86
2022/10/12 04:21:13;;;;;;;0.40;0.20;;;;;;;20.03;42.45;100372.13;4972561;28;20081;-86
2022/10/12 04:23:39;;;;;;;0.20;0.20;;;;;;;20.01;42.13;100374.28;4955576;28;20023;-86
2022/10/12 04:26:05;;;;;;;0.75;0.40;;;;;;;20.03;42.19;100380.28;4960458;28;20065;-85
2022/10/12 04:28:31;;;;;;;0.30;0.30;;;;;;;19.97;42.33;100386.72;4973267;28;20055;-85
2022/10/12 04:30:56;;;;;;;1.20;0.20;;;;;;;20.03;41.97;100387.59;4972622;28;20022;-86
2022/10/12 04:33:22;;;;;;;0.30;0.30;;;;;;;20.04;42.12;100394.66;4959677;28;20029;-86
2022/10/12 04:35:48;;;;;;;0.40;0.40;;;;;;;20.04;42.26;100400.91;4968455;28;20031;-86
2022/10/12 04:38:14;;;;;;;0.50;0.30;;;;;;;20.05;42.43;100407.16;4970953;28;20077;-86
2022/10/12 04:40:39;;;;;;;0.73;0.40;;;;;;;19.82;42.68;100386.50;4956277;28;20459;-85
2022/10/12 04:43:05;;;;;;;0.40;0.40;;;;;;;19.99;42.27;100400.00;4954138;28;20554;-86
2022/10/12 04:45:31;;;;;;;1.40;0.40;;;;;;;19.99;42.39;100409.00;4971994;28;20023;-86
2022/10/12 04:47:56;;;;;;;0.85;0.43;;;;;;;20.05;42.25;100418.00;4972050;28;20031;-86
2022/10/12 04:50:22;;;;;;;1.38;0.30;;;;;;;20.03;42.23;100412.03;4970883;28;20031;-86
2022/10/12 04:52:48;;;;;;;0.30;0.30;;;;;;;20.03;42.31;100415.53;4954481;28;20026;-86
2022/10/12 04:55:13;;;;;;;0.75;0.30;;;;;;;19.94;42.37;100411.63;4971620;28;20102;-85
2022/10/12 04:57:39;;;;;;;0.35;0.25;;;;;;;20.04;42.23;100427.22;4972136;28;20031;-85
2022/10/12 05:00:06;;;;;;;0.25;0.20;;;;;;;20.02;42.03;100424.78;4971532;28;20034;-86
2022/10/12 05:02:32;;;;;;;0.20;0.20;;;;;;;20.03;41.96;100426.38;4942306;28;20062;-85
2022/10/12 05:04:57;;;;;;;0.30;0.30;;;;;;;20.02;42.34;100430.19;4971196;28;20026;-86
2022/10/12 05:07:23;;;;;;;0.47;0.30;;;;;;;20.03;42.14;100439.97;4971080;28;20039;-86
2022/10/12 05:09:49;;;;;;;0.25;0.20;;;;;;;19.87;42.16;100424.53;4971869;28;20039;-85
2022/10/12 05:12:14;;;;;;;0.13;0.13;;;;;;;20.03;42.11;100441.84;4971869;28;20431;-85
2022/10/12 05:14:43;;;;;;;0.65;0.35;;;;;;;20.03;42.02;100453.53;4970876;28;20031;-86
2022/10/12 05:17:09;;;;;;;0.20;0.20;;;;;;;20.02;42.22;100451.91;4971994;28;20106;-86
2022/10/12 05:19:34;;;;;;;0.20;0.20;;;;;;;20.03;42.03;100450.00;4971489;28;20030;-86
2022/10/12 05:22:00;;;;;;;0.20;0.20;;;;;;;20.04;42.30;100449.75;4971188;28;20526;-86
2022/10/12 05:24:26;;;;;;;0.40;0.30;;;;;;;20.02;42.05;100460.03;4971468;28;20035;-85
2022/10/12 05:26:52;;;;;;;0.32;0.32;;;;;;;20.01;42.48;100460.28;4971439;28;20395;-85
2022/10/12 05:29:17;;;;;;;0.32;0.30;;;;;;;20.04;42.18;100454.34;4953667;28;20110;-85
2022/10/12 05:31:43;;;;;;;0.65;0.50;;;;;;;19.97;42.08;100454.53;4955213;28;20033;-85
2022/10/12 05:34:08;;;;;;;0.60;0.30;;;;;;;19.97;42.09;100459.97;4939017;28;20630;-86
2022/10/12 05:36:34;;;;;;;0.73;0.30;;;;;;;20.01;41.85;100466.53;4952728;28;20077;-85
2022/10/12 05:39:00;;;;;;;0.30;0.20;;;;;;;19.98;42.12;100467.00;4970833;28;20191;-86
2022/10/12 05:41:25;;;;;;;0.40;0.40;;;;;;;20.03;42.18;100475.22;4971168;28;20033;-86
2022/10/12 05:43:52;;;;;;;0.40;0.28;;;;;;;19.98;42.43;100472.44;4969986;28;20210;-85
2022/10/12 05:46:18;;;;;;;0.20;0.20;;;;;;;20.01;42.13;100482.78;4971022;28;20031;-86
2022/10/12 05:48:43;;;;;;;0.45;0.30;;;;;;;20.04;42.01;100481.47;4971758;28;20083;-86
2022/10/12 05:51:09;;;;;;;0.30;0.30;;;;;;;20.04;42.29;100482.31;4972962;28;20026;-86
2022/10/12 05:53:34;;;;;;;0.40;0.30;;;;;;;20.03;41.86;100486.06;4971049;28;20805;-86
2022/10/12 05:56:00;;;;;;;0.30;0.30;;;;;;;20.03;42.29;100486.06;4971564;28;20038;-86
2022/10/12 05:58:27;;;;;;;0.20;0.20;;;;;;;20.04;42.05;100493.16;4971418;28;20033;-85
2022/10/12 06:00:53;;;;;;;0.40;0.20;;;;;;;20.04;41.97;100493.16;4971701;28;20026;-86
2022/10/12 06:03:19;;;;;;;0.35;0.20;;;;;;;20.04;42.15;100493.16;4954940;28;20499;-86
2022/10/12 06:05:45;;;;;;;0.73;0.30;;;;;;;20.04;42.18;100492.31;4950419;28;20386;-85
2022/10/12 06:08:10;;;;;;;0.25;0.20;;;;;;;20.03;41.90;100507.78;4972346;28;20484;-86
2022/10/12 06:10:36;;;;;;;0.28;0.28;;;;;;;20.04;42.30;100500.44;4973328;28;20029;-86
2022/10/12 06:13:02;;;;;;;0.32;0.30;;;;;;;20.05;42.06;100510.25;4953464;28;20022;-85
2022/10/12 06:15:28;;;;;;;0.52;0.30;;;;;;;20.05;42.01;100510.25;4971482;28;20391;-85
2022/10/12 06:17:54;;;;;;;0.52;0.40;;;;;;;20.00;42.01;100502.84;4970375;28;20026;-86
2022/10/12 06:20:19;;;;;;;0.20;0.20;;;;;;;19.97;41.80;100489.78;4953039;28;20085;-85
2022/10/12 06:22:45;;;;;;;0.20;0.20;;;;;;;20.02;42.17;100500.72;4953813;28;20129;-86
2022/10/12 06:25:11;;;;;;;0.45;0.30;;;;;;;19.96;42.04;100496.28;4955414;28;20482;-85
2022/10/12 06:27:39;;;;;;;0.55;0.30;;;;;;;20.04;42.40;100514.84;4923516;28;20050;-86
2022/10/12 06:30:05;;;;;;;0.30;0.20;;;;;;;20.04;41.95;100512.16;4953379;28;20027;-86
2022/10/12 06:32:31;;;;;;;0.90;0.40;;;;;;;20.04;41.79;100514.84;4973423;28;20336;-86
2022/10/12 06:34:56;;;;;;;0.20;0.20;;;;;;;19.98;41.88;100506.88;4969214;28;20031;-85
2022/10/12 06:37:22;;;;;;;0.40;0.25;;;;;;;20.04;41.86;100517.56;4971816;28;20101;-86
2022/10/12 06:39:47;;;;;;;0.30;0.30;;;;;;;20.04;41.79;100516.72;4970239;28;20023;-86
2022/10/12 06:42:13;;;;;;;0.30;0.30;;;;;;;20.04;42.11;100517.56;4970017;28;20058;-85
2022/10/12 06:44:39;;;;;;;0.30;0.20;;;;;;;20.04;41.88;100516.72;4971059;28;20399;-85
2022/10/12 06:47:04;;;;;;;0.47;0.20;;;;;;;20.05;42.01;100521.09;4970199;28;20333;-85
2022/10/12 06:49:30;;;;;;;0.63;0.30;;;;;;;20.04;41.68;100520.28;4969152;28;20025;-85
2022/10/12 06:51:57;;;;;;;0.20;0.20;;;;;;;20.03;42.24;100526.75;4969943;28;20045;-85
2022/10/12 06:54:22;;;;;;;0.20;0.20;;;;;;;20.02;42.33;100533.28;4969465;28;20023;-85
2022/10/12 06:56:48;;;;;;;0.30;0.30;;;;;;;20.03;41.95;100529.47;4969630;28;20054;-85
2022/10/12 06:59:14;;;;;;;1.00;0.30;;;;;;;19.96;42.08;100526.13;4970137;28;20037;-85
2022/10/12 07:01:40;;;;;;;0.80;0.35;;;;;;;20.03;41.85;100540.31;4969488;28;20373;-85
2022/10/12 07:04:05;;;;;;;0.30;0.20;;;;;;;20.03;41.93;100547.66;4968889;28;20050;-85
2022/10/12 07:06:31;;;;;;;0.20;0.20;;;;;;;19.99;41.90;100539.19;4952343;28;20074;-85
2022/10/12 07:08:57;;;;;;;0.75;0.32;;;;;;;19.95;41.95;100538.00;4953410;28;20147;-85
2022/10/12 07:11:23;;;;;;;0.77;0.30;;;;;;;20.04;41.88;100552.00;4969360;28;20379;-85
2022/10/12 07:13:48;;;;;;;0.30;0.30;;;;;;;20.03;41.90;100551.19;4973070;28;20030;-85
2022/10/12 07:16:14;;;;;;;1.15;0.30;;;;;;;20.02;41.81;100549.56;4973347;28;20085;-85
2022/10/12 07:18:40;;;;;;;0.43;0.30;;;;;;;20.04;41.90;100552.00;4972933;28;20042;-85
2022/10/12 07:21:05;;;;;;;0.20;0.20;;;;;;;20.03;41.74;100553.91;4973947;28;20058;-85
2022/10/12 07:23:31;;;;;;;0.60;0.30;;;;;;;20.00;41.90;100548.94;4940597;28;20469;-86
2022/10/12 07:25:57;;;;;;;0.57;0.20;;;;;;;19.94;42.14;100535.56;4972390;28;20034;-86
2022/10/12 07:28:22;;;;;;;1.70;0.30;;;;;;;20.03;41.85;100555.78;4973797;28;20107;-85
2022/10/12 07:30:48;;;;;;;0.63;0.20;;;;;;;20.04;42.00;100560.13;4973290;28;20439;-85
2022/10/12 07:33:14;;;;;;;0.20;0.20;;;;;;;20.02;41.87;100554.97;4972876;28;20469;-85
2022/10/12 07:35:39;;;;;;;0.32;0.30;;;;;;;20.02;41.86;100565.84;4972936;28;20026;-85
2022/10/12 07:38:05;;;;;;;0.40;0.30;;;;;;;19.99;41.71;100560.88;4959070;28;20090;-85
2022/10/12 07:40:31;;;;;;;0.20;0.20;;;;;;;20.02;41.78;100565.84;4973340;28;20014;-85
2022/10/12 07:42:57;;;;;;;0.45;0.30;;;;;;;20.02;42.11;100565.84;4972529;28;20086;-86
2022/10/12 07:45:23;;;;;;;0.20;0.20;;;;;;;20.02;42.12;100565.84;4972859;28;20043;-86
2022/10/12 07:47:49;;;;;;;0.22;0.22;;;;;;;20.01;41.66;100580.44;4973311;28;20053;-85
2022/10/12 07:50:14;;;;;;;0.50;0.30;;;;;;;20.02;42.05;100571.25;4956253;28;20535;-85
2022/10/12 07:52:40;;;;;;;0.20;0.20;;;;;;;20.02;42.11;100570.41;4973481;28;20023;-85
2022/10/12 07:55:06;;;;;;;0.57;0.20;;;;;;;19.96;42.34;100566.00;4972660;28;20031;-85
2022/10/12 07:57:32;;;;;;;0.38;0.32;;;;;;;20.04;42.73;100573.69;4955673;28;20019;-86
2022/10/12 07:59:58;;;;;;;0.20;0.20;;;;;;;20.03;42.31;100577.50;4955378;28;20562;-86
2022/10/12 08:02:25;;;;;;;0.50;0.38;;;;;;;20.03;42.51;100582.91;4958366;28;20041;-86
2022/10/12 08:04:51;;;;;;;0.55;0.30;;;;;;;20.03;42.92;100583.72;4954958;28;20370;-85
2022/10/12 08:07:16;;;;;;;0.35;0.30;;;;;;;20.04;42.60;100582.69;4972588;28;20026;-86
2022/10/12 08:09:42;;;;;;;0.28;0.28;;;;;;;20.05;42.69;100576.16;4972716;28;20766;-85
2022/10/12 08:12:09;;;;;;;0.30;0.20;;;;;;;20.05;42.46;100584.31;4972117;28;20444;-85
2022/10/12 08:14:34;;;;;;;0.63;0.30;;;;;;;20.05;42.18;100580.78;4971751;28;20031;-86
2022/10/12 08:17:00;;;;;;;0.20;0.20;;;;;;;20.06;42.78;100577.81;4972394;28;20033;-86
2022/10/12 08:19:26;;;;;;;0.30;0.20;;;;;;;20.05;42.94;100576.16;4955215;28;20383;-86
2022/10/12 08:21:51;;;;;;;0.40;0.20;;;;;;;20.07;43.07;100576.78;4956199;28;20387;-85
2022/10/12 08:24:17;;;;;;;0.38;0.30;;;;;;;20.09;42.46;100587.34;4972244;28;20102;-86
2022/10/12 08:26:42;;;;;;;0.20;0.20;;;;;;;20.10;42.70;100583.56;4971462;28;20027;-86
2022/10/12 08:29:08;;;;;;;0.43;0.30;;;;;;;20.06;42.59;100575.09;4954949;28;20031;-86
2022/10/12 08:31:34;;;;;;;0.45;0.30;;;;;;;20.06;42.93;100575.09;4955939;28;20693;-86
2022/10/12 08:34:00;;;;;;;0.60;0.30;;;;;;;20.11;43.13;100578.97;4940585;28;20034;-86
2022/10/12 08:36:26;;;;;;;0.40;0.30;;;;;;;20.08;42.92;100580.28;4971925;28;20411;-86
2022/10/12 08:38:55;;;;;;;0.30;0.20;;;;;;;20.14;43.14;100583.91;4957910;28;20034;-86
2022/10/12 08:41:39;;;;;;;0.30;0.20;;;;;;;20.12;42.50;100586.84;4970023;28;20023;-86
2022/10/12 08:44:14;;;;;;;0.70;0.30;;;;;;;20.13;42.60;100584.97;4971087;28;20050;-86
2022/10/12 08:46:39;;;;;;;0.63;0.30;;;;;;;20.13;43.11;100593.09;4970824;28;20150;-86
2022/10/12 08:49:26;;;;;;;0.40;0.30;;;;;;;20.13;42.99;100588.50;4955719;28;20031;-86
2022/10/12 08:51:53;;;;;;;0.30;0.20;;;;;;;20.10;42.71;100580.06;4971261;28;20038;-86
2022/10/12 08:54:20;;;;;;;0.45;0.30;;;;;;;20.12;42.85;100586.03;4971473;28;20381;-86
2022/10/12 08:56:45;;;;;;;0.30;0.30;;;;;;;20.16;42.69;100587.19;4956825;28;20404;-86
2022/10/12 08:59:12;;;;;;;0.30;0.25;;;;;;;19.96;42.97;100555.94;4971877;28;20035;-85
2022/10/12 09:02:02;;;;;;;0.17;0.17;;;;;;;20.17;42.61;100594.28;4955429;28;20027;-86
2022/10/12 09:04:47;;;;;;;0.30;0.30;;;;;;;20.18;42.95;100598.59;4971599;28;20039;-86
2022/10/12 09:07:24;;;;;;;;;;;;;;;20.19;43.13;100597.56;4971579;28;20035;-85
2022/10/12 09:10:19;;;;;;;0.20;0.20;;;;;;;20.17;42.76;100588.84;4969557;28;19918;-86
2022/10/12 09:13:15;;;;;;;1.40;0.43;;;;;;;20.20;42.95;100599.22;4954421;28;20030;-86
2022/10/12 09:16:03;;;;;;;0.85;0.40;;;;;;;20.15;43.04;100594.50;4970824;28;20480;-86
2022/10/12 09:18:40;;;;;;;0.30;0.30;;;;;;;20.14;43.29;100600.19;4969058;28;20027;-86
2022/10/12 09:21:23;;;;;;;0.35;0.30;;;;;;;20.21;43.55;100617.13;4970545;28;20023;-86
2022/10/12 09:23:49;;;;;;;0.30;0.30;;;;;;;20.24;43.23;100614.72;4956546;28;20136;-86
2022/10/12 09:26:20;;;;;;;0.32;0.32;;;;;;;20.19;43.40;100602.97;4955447;28;20753;-86
2022/10/12 09:28:56;;;;;;;0.30;0.30;;;;;;;20.23;43.06;100609.53;4971625;28;20063;-85
2022/10/12 09:31:26;;;;;;;1.42;0.38;;;;;;;20.22;43.23;100613.34;4953624;28;20109;-85
2022/10/12 09:33:58;;;;;;;0.95;0.30;;;;;;;20.25;43.11;100623.72;4951264;28;20028;-86
2022/10/12 09:36:29;;;;;;;0.28;0.20;;;;;;;20.23;43.36;100621.25;4936945;28;20499;-85
2022/10/12 09:38:54;;;;;;;0.30;0.30;;;;;;;20.24;43.73;100617.44;4973325;28;20043;-86
2022/10/12 09:41:25;;;;;;;0.60;0.32;;;;;;;20.24;43.62;100627.50;4953472;28;20109;-86
2022/10/12 09:43:54;;;;;;;0.20;0.20;;;;;;;20.21;43.61;100625.25;4941155;28;20074;-86
2022/10/12 09:46:27;;;;;;;0.93;0.20;;;;;;;20.20;43.47;100623.63;4953814;28;20519;-86
2022/10/12 09:48:58;;;;;;;0.20;0.20;;;;;;;20.26;43.36;100631.63;4952767;28;20046;-86
2022/10/12 09:51:24;;;;;;;0.52;0.30;;;;;;;20.26;43.46;100628.06;4970850;28;20038;-87
2022/10/12 09:53:57;;;;;;;0.40;0.30;;;;;;;20.26;43.19;100634.34;4970771;28;20121;-86
2022/10/12 09:56:26;;;;;;;0.20;0.20;;;;;;;20.28;43.56;100628.63;4970072;28;20720;-87
2022/10/12 09:58:57;;;;;;;1.17;0.40;;;;;;;20.29;43.23;100640.31;4971038;28;20018;-86
2022/10/12 10:01:27;;;;;;;1.38;0.30;;;;;;;20.23;43.05;100631.25;4955978;28;20030;-86
2022/10/12 10:04:10;;;;;;;0.20;0.20;;;;;;;20.28;43.28;100642.19;4969596;28;20038;-86
2022/10/12 10:06:36;;;;;;;0.75;0.35;;;;;;;20.26;43.55;100649.75;4968800;28;20109;-86
2022/10/12 10:09:02;;;;;;;1.13;0.40;;;;;;;20.28;43.46;100650.34;4970614;28;20031;-85
2022/10/12 10:11:31;;;;;;;0.30;0.20;;;;;;;20.28;43.62;100655.75;4953413;28;20077;-85
2022/10/12 10:13:57;;;;;;;0.52;0.40;;;;;;;20.28;43.28;100655.75;4940124;28;20049;-86
2022/10/12 10:16:24;;;;;;;0.32;0.28;;;;;;;20.29;43.08;100657.44;4920837;28;20043;-85
2022/10/12 10:18:59;;;;;;;0.28;0.28;;;;;;;20.29;43.20;100659.31;4936688;28;20024;-85
2022/10/12 10:21:35;;;;;;;0.63;0.30;;;;;;;20.32;43.30;100664.28;4970544;28;20027;-85
2022/10/12 10:24:02;;;;;;;0.43;0.20;;;;;;;20.23;43.80;100650.25;4969730;28;20527;-85
2022/10/12 10:26:31;;;;;;;0.22;0.22;;;;;;;20.31;43.66;100666.13;4930494;28;20033;-85
2022/10/12 10:29:23;;;;;;;0.60;0.30;;;;;;;20.30;43.62;100672.66;4937691;28;20043;-85
2022/10/12 10:31:50;;;;;;;0.47;0.30;;;;;;;20.31;43.70;100677.00;4942003;28;20037;-85
2022/10/12 10:34:16;;;;;;;1.08;0.40;;;;;;;20.30;43.50;100671.81;4953247;28;20444;-86
2022/10/12 10:36:52;;;;;;;1.55;0.32;;;;;;;20.29;43.28;100671.00;4969215;28;20124;-85
2022/10/12 10:39:19;;;;;;;0.32;0.30;;;;;;;20.27;43.65;100665.00;4950695;28;20023;-86
2022/10/12 10:41:45;;;;;;;0.40;0.20;;;;;;;20.29;43.63;100668.28;4952837;28;20031;-86
2022/10/12 10:44:19;;;;;;;0.82;0.40;;;;;;;20.31;43.19;100668.03;4955044;28;20282;-86
2022/10/12 10:46:45;;;;;;;0.82;0.40;;;;;;;20.30;43.99;100659.09;4951271;28;20027;-86
2022/10/12 10:49:20;;;;;;;0.40;0.30;;;;;;;20.32;43.87;100664.28;4969714;28;20146;-86
2022/10/12 10:51:48;;;;;;;0.38;0.20;;;;;;;20.28;43.42;100666.63;4938471;28;20154;-86
2022/10/12 10:54:20;;;;;;;0.60;0.22;;;;;;;20.26;43.66;100666.06;4952219;28;20027;-85
2022/10/12 10:56:46;;;;;;;0.20;0.20;;;;;;;20.30;43.31;100672.66;4953336;28;20034;-85
2022/10/12 10:59:20;;;;;;;0.20;0.20;;;;;;;20.30;43.70;100663.66;4970104;28;20503;-86
2022/10/12 11:01:58;;;;;;;0.40;0.22;;;;;;;20.35;43.59;100674.59;4953271;28;20023;-86
2022/10/12 11:04:30;;;;;;;0.73;0.32;;;;;;;20.33;43.33;100680.28;4969867;28;20031;-85
2022/10/12 11:06:58;;;;;;;0.55;0.40;;;;;;;20.35;43.75;100680.88;4952669;28;20114;-86
2022/10/12 11:09:41;;;;;;;0.30;0.20;;;;;;;20.35;43.68;100688.19;4968911;28;20578;-86
2022/10/12 11:12:34;;;;;;;1.00;0.30;;;;;;;20.37;43.38;100691.47;4953894;28;20121;-85
2022/10/12 11:15:11;;;;;;;0.30;0.30;;;;;;;20.37;43.34;100692.31;4967066;28;20054;-86
2022/10/12 11:17:47;;;;;;;0.47;0.30;;;;;;;20.37;43.67;100697.75;4969280;28;20365;-86
2022/10/12 11:20:31;;;;;;;0.38;0.30;;;;;;;20.37;43.34;100692.31;4954544;28;20432;-86
2022/10/12 11:23:08;;;;;;;0.22;0.22;;;;;;;20.37;43.36;100694.19;4949201;28;20050;-86
2022/10/12 11:25:39;;;;;;;0.32;0.30;;;;;;;20.37;43.50;100691.47;4954747;28;20180;-86
2022/10/12 11:28:06;;;;;;;0.40;0.32;;;;;;;20.33;43.83;100684.91;4952981;28;20027;-86
2022/10/12 11:30:38;;;;;;;0.32;0.20;;;;;;;20.37;43.74;100692.31;4951171;28;20464;-86
2022/10/12 11:33:13;;;;;;;0.45;0.35;;;;;;;20.37;43.63;100686.88;4968658;28;20031;-86